Tropical Cyclones
[Index]
Main Index Home Page Stock Weather Photos Extreme Storms Discussion Storm News and Storm Chasing Reports Tropical Cyclones / Hurricanes / Typhoons Weather Data and Links Wild Fires / Bushfires Weather Observation Techniques Weather Picture Catalogue Tornado Pictures and Reports Stock Video Footage and DVDs for sale
Season 2002-2003 Tropical Cyclone GINA Track Map
Season 2002-2003 Summaries (Operational Data): [AU] [SIO] [SPAC] [SH]
<<- Previous TC | 2002-2003 Season | Next TC ->>

click for intensity scale information  Lat/long Grid: Show Hide

 Date Labels: Show Hide

Operational Tropical Cyclone Data : JTWC Advisories

Name: GINA
Number: 0329

04 Jun 2003 08:00 UTC to 09 Jun 2003 08:00 UTC

    date/time    lat    long     hPa   cat  kts
2003-06-04 08   10.5   171.0    1005         25          
2003-06-04 18   10.5   170.5    1003         25          
2003-06-05 00   11.2   169.2    1003         25          
2003-06-05 06   11.4   169.1     999         30          
2003-06-05 08   11.4   169.1     992    1    35          
2003-06-05 12   11.7   168.5     987    1    45          
2003-06-05 18   12.0   168.1     985    2    50          
2003-06-05 20   13.0   167.5     985    2    50          
2003-06-06 00   13.3   167.2     980    2    55          
2003-06-06 06   14.3   166.3     980    2    55          
2003-06-06 12   15.2   165.0     980    2    55          
2003-06-06 18   15.5   163.8     975    2    60          
2003-06-07 00   15.8   163.0     970    3    65          
2003-06-07 06   16.4   162.5     970    3    70          
2003-06-07 12   16.8   162.1     950    3    80          
2003-06-07 18   17.4   161.9     950    3    80          
2003-06-08 00   17.5   161.8     960    3    75          
2003-06-08 06   17.7   162.6     970    3    65          
2003-06-08 12   17.8   162.7     975    2    60          
2003-06-08 18   18.2   164.8     987    1    45          
2003-06-08 22   16.6   162.0     987    1    45          
2003-06-09 00   16.8   162.0     990    1    40          
2003-06-09 06   16.4   162.0     999         30          
2003-06-09 08   16.4   162.0     999         30          
Winds are 10-min average.

Tropical cyclone tracks developed by Michael Bath using operational warnings and advisories and Google Maps.


[Australian Severe Weather index] [Copyright Notice] [Email Contacts] [Search This Site] [Privacy Policy]
Document: tropical_cyclone_gina.htm Updated: 2 May 2017